createdAt,value
2022-09-21T00:02:28.115Z,13.70
2022-09-21T00:04:59.029Z,13.70
2022-09-21T00:07:32.424Z,13.70
2022-09-21T00:10:03.106Z,13.60
2022-09-21T00:12:33.902Z,13.60
2022-09-21T00:15:04.452Z,13.60
2022-09-21T00:17:35.117Z,13.60
2022-09-21T00:20:06.233Z,13.60
2022-09-21T00:22:40.085Z,13.50
2022-09-21T00:25:12.451Z,13.50
2022-09-21T00:27:43.136Z,13.50
2022-09-21T00:30:15.737Z,13.50
2022-09-21T00:32:46.609Z,13.50
2022-09-21T00:35:17.338Z,13.50
2022-09-21T00:37:50.800Z,13.40
2022-09-21T00:40:21.615Z,13.40
2022-09-21T00:42:52.314Z,13.50
2022-09-21T00:45:24.135Z,13.50
2022-09-21T00:47:56.214Z,13.50
2022-09-21T00:50:28.132Z,13.40
2022-09-21T00:53:02.032Z,13.40
2022-09-21T00:55:37.576Z,13.40
2022-09-21T00:58:13.117Z,13.40
2022-09-21T01:00:43.933Z,13.40
2022-09-21T01:03:16.490Z,13.40
2022-09-21T01:05:47.076Z,13.30
2022-09-21T01:08:22.739Z,13.20
2022-09-21T01:11:25.761Z,13.20
2022-09-21T01:14:11.537Z,13.20
2022-09-21T01:16:51.826Z,13.20
2022-09-21T01:19:43.817Z,13.20
2022-09-21T01:22:22.057Z,13.10
2022-09-21T01:25:08.113Z,13.10
2022-09-21T01:28:00.905Z,13.10
2022-09-21T01:30:37.268Z,13.10
2022-09-21T01:33:13.331Z,13.10
2022-09-21T01:35:48.231Z,13.10
2022-09-21T01:38:25.032Z,13.00
2022-09-21T01:40:58.939Z,13.10
2022-09-21T01:43:36.838Z,13.00
2022-09-21T01:46:15.878Z,13.00
2022-09-21T01:48:50.302Z,13.00
2022-09-21T01:51:23.596Z,12.90
2022-09-21T01:53:58.421Z,12.90
2022-09-21T01:56:38.622Z,12.90
2022-09-21T01:59:14.480Z,12.90
2022-09-21T02:01:53.036Z,12.80
2022-09-21T02:04:23.371Z,12.90
2022-09-21T02:06:54.777Z,12.90
2022-09-21T02:09:26.637Z,12.80
2022-09-21T02:11:58.627Z,12.90
2022-09-21T02:14:29.211Z,12.90
2022-09-21T02:17:11.441Z,12.90
2022-09-21T02:19:48.518Z,12.80
2022-09-21T02:22:29.400Z,12.80
2022-09-21T02:25:08.305Z,12.80
2022-09-21T02:27:44.780Z,12.80
2022-09-21T02:30:19.059Z,12.80
2022-09-21T02:32:58.882Z,12.70
2022-09-21T02:35:36.439Z,12.70
2022-09-21T02:38:12.394Z,12.70
2022-09-21T02:40:46.612Z,12.80
2022-09-21T02:43:23.388Z,12.70
2022-09-21T02:45:57.402Z,12.60
2022-09-21T02:48:36.030Z,12.70
2022-09-21T02:51:08.085Z,12.70
2022-09-21T02:53:40.503Z,12.60
2022-09-21T02:56:12.253Z,12.70
2022-09-21T02:58:48.496Z,12.60
2022-09-21T03:01:20.760Z,12.60
2022-09-21T03:03:53.645Z,12.60
2022-09-21T03:06:24.182Z,12.70
2022-09-21T03:08:54.545Z,12.60
2022-09-21T03:11:24.989Z,12.60
2022-09-21T03:13:55.330Z,12.50
2022-09-21T03:16:25.813Z,12.50
2022-09-21T03:18:58.688Z,12.50
2022-09-21T03:21:29.218Z,12.60
2022-09-21T03:23:59.568Z,12.50
2022-09-21T03:26:29.912Z,12.50
2022-09-21T03:29:00.276Z,12.50
2022-09-21T03:31:31.515Z,12.50
2022-09-21T03:34:04.444Z,12.50
2022-09-21T03:36:34.908Z,12.50
2022-09-21T03:39:05.447Z,12.50
2022-09-21T03:41:35.839Z,12.50
2022-09-21T03:44:06.364Z,12.50
2022-09-21T03:46:37.450Z,12.50
2022-09-21T03:49:10.478Z,12.50
2022-09-21T03:51:41.087Z,12.40
2022-09-21T03:54:11.293Z,12.40
2022-09-21T03:56:41.840Z,12.40
2022-09-21T03:59:14.300Z,12.40
2022-09-21T04:01:45.067Z,12.40
2022-09-21T04:04:18.018Z,12.40
2022-09-21T04:06:48.947Z,12.40
2022-09-21T04:09:19.501Z,12.40
2022-09-21T04:11:50.081Z,12.40
2022-09-21T04:14:20.440Z,12.40
2022-09-21T04:16:51.124Z,12.40
2022-09-21T04:19:24.202Z,12.30
2022-09-21T04:21:56.179Z,12.30
2022-09-21T04:24:27.405Z,12.30
2022-09-21T04:26:57.841Z,12.30
2022-09-21T04:29:28.145Z,12.30
2022-09-21T04:31:58.404Z,12.30
2022-09-21T04:34:31.362Z,12.30
2022-09-21T04:37:02.821Z,12.20
2022-09-21T04:39:33.343Z,12.30
2022-09-21T04:42:03.674Z,12.20
2022-09-21T04:44:34.280Z,12.20
2022-09-21T04:47:04.636Z,12.20
2022-09-21T04:49:38.717Z,12.20
2022-09-21T04:52:09.080Z,12.20
2022-09-21T04:54:39.415Z,12.10
2022-09-21T04:57:09.947Z,12.20
2022-09-21T04:59:40.206Z,12.20
2022-09-21T05:02:10.587Z,12.20
2022-09-21T05:04:47.527Z,12.20
2022-09-21T05:07:20.875Z,12.10
2022-09-21T05:10:03.795Z,12.10
2022-09-21T05:12:37.560Z,12.10
2022-09-21T05:15:11.527Z,12.10
2022-09-21T05:17:42.697Z,12.00
2022-09-21T05:20:15.869Z,12.00
2022-09-21T05:22:46.185Z,12.10
2022-09-21T05:25:17.671Z,12.00
2022-09-21T05:28:02.909Z,12.00
2022-09-21T05:30:34.082Z,12.10
2022-09-21T05:33:07.039Z,12.00
2022-09-21T05:35:45.217Z,12.00
2022-09-21T05:38:19.631Z,12.00
2022-09-21T05:40:50.828Z,12.00
2022-09-21T05:43:21.836Z,11.90
2022-09-21T05:45:59.605Z,11.90
2022-09-21T05:48:34.090Z,12.00
2022-09-21T05:51:12.901Z,11.90
2022-09-21T05:53:53.374Z,11.90
2022-09-21T05:56:37.349Z,11.80
2022-09-21T05:59:29.231Z,11.80
2022-09-21T06:02:07.480Z,11.90
2022-09-21T06:04:40.642Z,11.80
2022-09-21T06:07:13.716Z,11.80
2022-09-21T06:09:43.979Z,11.80
2022-09-21T06:12:14.466Z,11.90
2022-09-21T06:14:45.530Z,11.90
2022-09-21T06:17:15.951Z,11.80
2022-09-21T06:19:46.318Z,11.80
2022-09-21T06:22:19.276Z,11.90
2022-09-21T06:24:49.566Z,11.90
2022-09-21T06:27:19.859Z,11.90
2022-09-21T06:29:50.222Z,11.80
2022-09-21T06:32:20.934Z,11.90
2022-09-21T06:34:51.384Z,11.90
2022-09-21T06:37:24.350Z,11.80
2022-09-21T06:39:54.709Z,11.90
2022-09-21T06:42:25.139Z,11.80
2022-09-21T06:44:55.787Z,11.80
2022-09-21T06:47:26.138Z,12.10
2022-09-21T06:49:56.369Z,12.00
2022-09-21T06:52:29.306Z,12.10
2022-09-21T06:54:59.602Z,12.00
2022-09-21T06:57:29.915Z,12.00
2022-09-21T07:00:00.767Z,12.00
2022-09-21T07:02:31.107Z,12.00
2022-09-21T07:05:01.492Z,12.00
2022-09-21T07:07:34.494Z,12.00
2022-09-21T07:10:13.079Z,12.00
2022-09-21T07:12:43.982Z,12.10
2022-09-21T07:15:15.669Z,12.20
2022-09-21T07:17:51.763Z,12.10
2022-09-21T07:20:22.623Z,12.20
2022-09-21T07:22:55.714Z,12.20
2022-09-21T07:25:26.047Z,12.20
2022-09-21T07:27:56.390Z,12.30
2022-09-21T07:30:27.874Z,12.30
2022-09-21T07:32:58.785Z,12.30
2022-09-21T07:35:29.151Z,12.30
2022-09-21T07:38:04.269Z,12.30
2022-09-21T07:40:35.108Z,12.40
2022-09-21T07:43:06.128Z,12.50
2022-09-21T07:45:36.429Z,12.50
2022-09-21T07:48:07.770Z,12.50
2022-09-21T07:50:38.841Z,12.50
2022-09-21T07:53:11.688Z,12.50
2022-09-21T07:55:42.108Z,12.50
2022-09-21T07:58:24.806Z,12.60
2022-09-21T08:00:55.308Z,12.60
2022-09-21T08:03:25.690Z,12.60
2022-09-21T08:05:56.160Z,12.60
2022-09-21T08:08:29.134Z,12.70
2022-09-21T08:11:05.123Z,12.70
2022-09-21T08:13:35.708Z,12.80
2022-09-21T08:16:06.814Z,12.70
2022-09-21T08:18:40.228Z,12.80
2022-09-21T08:21:12.797Z,12.90
2022-09-21T08:23:46.283Z,12.90
2022-09-21T08:26:19.270Z,13.00
2022-09-21T08:28:51.713Z,13.00
2022-09-21T08:31:24.588Z,13.00
2022-09-21T08:33:55.994Z,13.10
2022-09-21T08:36:26.465Z,13.10
2022-09-21T08:38:59.507Z,13.10
2022-09-21T08:41:41.657Z,13.20
2022-09-21T08:44:16.420Z,13.30
2022-09-21T08:46:49.580Z,13.30
2022-09-21T08:49:23.505Z,13.30
2022-09-21T08:51:59.582Z,13.40
2022-09-21T08:54:40.824Z,13.40
2022-09-21T08:57:15.491Z,13.50
2022-09-21T08:59:48.578Z,13.50
2022-09-21T09:02:37.961Z,13.50
2022-09-21T09:05:25.056Z,13.70
2022-09-21T09:08:21.376Z,13.80
2022-09-21T09:11:06.241Z,13.80
2022-09-21T09:13:54.087Z,13.80
2022-09-21T09:16:28.641Z,13.90
2022-09-21T09:19:18.484Z,13.90
2022-09-21T09:21:49.761Z,14.00
2022-09-21T09:24:29.253Z,14.10
2022-09-21T09:27:07.244Z,14.10
2022-09-21T09:29:47.276Z,14.20
2022-09-21T09:32:20.159Z,14.40
2022-09-21T09:34:58.607Z,14.40
2022-09-21T09:37:36.776Z,14.50
2022-09-21T09:40:08.968Z,14.50
2022-09-21T09:42:53.951Z,14.60
2022-09-21T09:45:48.404Z,14.70
2022-09-21T09:48:54.314Z,14.70
2022-09-21T09:51:27.012Z,14.70
2022-09-21T09:54:06.923Z,14.80
2022-09-21T09:56:39.901Z,14.90
2022-09-21T09:59:19.280Z,15.00
2022-09-21T10:02:01.199Z,15.00
2022-09-21T10:04:31.889Z,15.00
2022-09-21T10:07:02.334Z,15.10
2022-09-21T10:09:36.517Z,15.20
2022-09-21T10:12:20.126Z,15.20
2022-09-21T10:14:57.818Z,15.30
2022-09-21T10:17:28.679Z,15.50
2022-09-21T10:20:08.215Z,15.50
2022-09-21T10:22:38.679Z,15.30
2022-09-21T10:25:09.804Z,15.20
2022-09-21T10:27:47.077Z,15.10
2022-09-21T10:30:39.960Z,15.40
2022-09-21T10:33:22.543Z,15.60
2022-09-21T10:35:54.898Z,15.50
2022-09-21T10:38:31.285Z,15.60
2022-09-21T10:41:01.709Z,15.70
2022-09-21T10:43:42.616Z,16.00
2022-09-21T10:46:17.552Z,16.10
2022-09-21T10:48:49.348Z,16.10
2022-09-21T10:51:30.384Z,16.00
2022-09-21T10:54:01.813Z,16.00
2022-09-21T10:56:32.394Z,16.00
2022-09-21T10:59:24.056Z,16.00
2022-09-21T11:01:59.009Z,16.20
2022-09-21T11:04:40.163Z,16.20
2022-09-21T11:07:20.757Z,16.20
2022-09-21T11:10:00.733Z,16.20
2022-09-21T11:12:42.746Z,16.10
2022-09-21T11:15:22.769Z,16.20
2022-09-21T11:18:02.959Z,16.20
2022-09-21T11:20:42.589Z,16.10
2022-09-21T11:23:25.028Z,16.10
2022-09-21T11:26:01.162Z,16.00
2022-09-21T11:28:37.221Z,16.00
2022-09-21T11:31:37.128Z,16.00
2022-09-21T11:34:25.238Z,16.00
2022-09-21T11:37:10.115Z,16.00
2022-09-21T11:39:53.722Z,16.10
2022-09-21T11:42:40.820Z,16.00
2022-09-21T11:45:27.963Z,16.10
2022-09-21T11:48:12.447Z,16.00
2022-09-21T11:50:53.804Z,16.10
2022-09-21T11:54:01.000Z,16.10
2022-09-21T11:56:41.256Z,16.20
2022-09-21T11:59:42.881Z,16.20
2022-09-21T12:02:33.199Z,16.20
2022-09-21T12:05:09.788Z,16.20
2022-09-21T12:08:00.637Z,16.20
2022-09-21T12:10:42.008Z,16.10
2022-09-21T12:13:23.515Z,16.10
2022-09-21T12:16:01.396Z,16.10
2022-09-21T12:18:37.992Z,16.10
2022-09-21T12:21:16.390Z,16.10
2022-09-21T12:23:52.838Z,16.10
2022-09-21T12:26:26.694Z,16.20
2022-09-21T12:29:02.808Z,16.50
2022-09-21T12:31:38.899Z,16.80
2022-09-21T12:34:16.998Z,16.90
2022-09-21T12:37:02.468Z,17.20
2022-09-21T12:39:42.302Z,17.10
2022-09-21T12:42:31.678Z,17.40
2022-09-21T12:45:08.193Z,17.60
2022-09-21T12:47:50.142Z,17.70
2022-09-21T12:50:28.833Z,17.80
2022-09-21T12:53:01.398Z,17.80
2022-09-21T12:55:46.390Z,17.60
2022-09-21T12:58:30.111Z,17.50
2022-09-21T13:01:08.880Z,17.40
2022-09-21T13:03:45.906Z,17.40
2022-09-21T13:06:57.548Z,17.30
2022-09-21T13:09:29.568Z,17.20
2022-09-21T13:12:09.515Z,17.20
2022-09-21T13:14:47.154Z,17.30
2022-09-21T13:17:25.900Z,17.20
2022-09-21T13:20:05.895Z,17.20
2022-09-21T13:22:38.663Z,17.20
2022-09-21T13:25:21.117Z,17.20
2022-09-21T13:28:13.704Z,17.20
2022-09-21T13:30:46.050Z,17.20
2022-09-21T13:33:32.960Z,17.20
2022-09-21T13:36:35.452Z,17.20
2022-09-21T13:39:18.656Z,17.20
2022-09-21T13:42:02.894Z,17.50
2022-09-21T13:44:47.830Z,17.70
2022-09-21T13:47:30.907Z,17.90
2022-09-21T13:50:04.697Z,17.80
2022-09-21T13:52:43.441Z,17.80
2022-09-21T13:55:27.893Z,17.80
2022-09-21T13:58:02.313Z,18.00
2022-09-21T14:00:45.014Z,17.90
2022-09-21T14:03:27.687Z,17.80
2022-09-21T14:06:04.071Z,18.10
2022-09-21T14:08:38.740Z,18.10
2022-09-21T14:11:11.551Z,18.30
2022-09-21T14:13:44.249Z,18.20
2022-09-21T14:16:44.827Z,18.30
2022-09-21T14:19:45.098Z,18.30
2022-09-21T14:22:40.824Z,18.30
2022-09-21T14:25:41.811Z,18.20
2022-09-21T14:28:16.462Z,18.10
2022-09-21T14:30:54.339Z,18.00
2022-09-21T14:33:33.472Z,18.00
2022-09-21T14:36:08.920Z,17.90
2022-09-21T14:38:53.590Z,17.80
2022-09-21T14:41:34.642Z,17.90
2022-09-21T14:44:05.324Z,17.80
2022-09-21T14:46:59.708Z,17.80
2022-09-21T14:49:46.301Z,17.80
2022-09-21T14:52:32.464Z,17.80
2022-09-21T14:55:19.042Z,17.80
2022-09-21T14:58:02.779Z,17.80
2022-09-21T15:00:44.081Z,17.70
2022-09-21T15:03:37.049Z,17.70
2022-09-21T15:06:30.990Z,17.60
2022-09-21T15:09:41.433Z,17.60
2022-09-21T15:12:19.408Z,17.60
2022-09-21T15:14:57.398Z,17.50
2022-09-21T15:17:32.991Z,17.50
2022-09-21T15:20:17.165Z,17.50
2022-09-21T15:22:47.702Z,17.50
2022-09-21T15:25:19.481Z,17.50
2022-09-21T15:27:53.135Z,17.60
2022-09-21T15:30:26.323Z,17.60
2022-09-21T15:32:59.354Z,17.70
2022-09-21T15:35:32.764Z,17.80
2022-09-21T15:38:04.622Z,17.80
2022-09-21T15:40:36.601Z,17.90
2022-09-21T15:43:20.897Z,18.00
2022-09-21T15:45:54.882Z,18.00
2022-09-21T15:48:25.755Z,18.00
2022-09-21T15:51:00.251Z,18.00
2022-09-21T15:53:34.490Z,18.00
2022-09-21T15:56:05.203Z,18.00
2022-09-21T15:58:40.727Z,18.10
2022-09-21T16:01:14.456Z,18.20
2022-09-21T16:03:46.099Z,18.10
2022-09-21T16:06:29.994Z,18.10
2022-09-21T16:09:00.440Z,18.20
2022-09-21T16:11:38.808Z,18.20
2022-09-21T16:14:28.770Z,18.20
2022-09-21T16:17:24.090Z,18.30
2022-09-21T16:20:19.987Z,18.30
2022-09-21T16:22:52.586Z,18.30
2022-09-21T16:25:30.164Z,18.30
2022-09-21T16:28:02.586Z,18.30
2022-09-21T16:30:51.318Z,18.30
2022-09-21T16:33:41.357Z,18.30
2022-09-21T16:36:42.099Z,18.40
2022-09-21T16:39:17.560Z,18.40
2022-09-21T16:41:53.596Z,18.40
2022-09-21T16:44:26.217Z,18.40
2022-09-21T16:47:02.002Z,18.30
2022-09-21T16:49:35.820Z,18.30
2022-09-21T16:52:07.619Z,18.20
2022-09-21T16:54:38.265Z,18.20
2022-09-21T16:57:10.111Z,18.20
2022-09-21T16:59:40.471Z,18.00
2022-09-21T17:02:14.522Z,18.10
2022-09-21T17:04:45.225Z,18.00
2022-09-21T17:07:19.118Z,18.00
2022-09-21T17:09:50.831Z,17.90
2022-09-21T17:12:22.420Z,17.90
2022-09-21T17:14:53.031Z,17.80
2022-09-21T17:17:27.271Z,17.80
2022-09-21T17:19:57.833Z,17.70
2022-09-21T17:22:29.227Z,17.70
2022-09-21T17:24:59.581Z,17.60
2022-09-21T17:27:29.981Z,17.50
2022-09-21T17:30:03.631Z,17.50
2022-09-21T17:32:38.839Z,17.40
2022-09-21T17:35:18.848Z,17.30
2022-09-21T17:37:49.211Z,17.30
2022-09-21T17:40:20.600Z,17.20
2022-09-21T17:42:53.011Z,17.20
2022-09-21T17:45:32.662Z,17.10
2022-09-21T17:48:06.470Z,17.10
2022-09-21T17:50:37.233Z,17.00
2022-09-21T17:53:20.783Z,17.00
2022-09-21T17:55:56.919Z,16.90
2022-09-21T17:58:46.204Z,16.90
2022-09-21T18:01:25.689Z,16.80
2022-09-21T18:03:59.143Z,16.70
2022-09-21T18:06:30.311Z,16.70
2022-09-21T18:09:01.774Z,16.70
2022-09-21T18:12:00.289Z,16.70
2022-09-21T18:14:34.917Z,16.60
2022-09-21T18:17:21.950Z,16.60
2022-09-21T18:20:15.913Z,16.50
2022-09-21T18:22:56.186Z,16.40
2022-09-21T18:25:32.134Z,16.40
2022-09-21T18:28:12.305Z,16.30
2022-09-21T18:30:52.815Z,16.30
2022-09-21T18:33:27.704Z,16.30
2022-09-21T18:36:14.558Z,16.30
2022-09-21T18:38:49.363Z,16.20
2022-09-21T18:41:33.151Z,16.20
2022-09-21T18:44:18.110Z,16.20
2022-09-21T18:46:58.740Z,16.10
2022-09-21T18:49:46.193Z,16.10
2022-09-21T18:52:28.065Z,16.10
2022-09-21T18:54:58.672Z,16.00
2022-09-21T18:57:32.510Z,16.00
2022-09-21T19:00:03.606Z,15.90
2022-09-21T19:02:34.588Z,15.90
2022-09-21T19:05:06.083Z,15.90
2022-09-21T19:07:44.128Z,15.80
2022-09-21T19:10:22.821Z,15.80
2022-09-21T19:13:07.179Z,15.80
2022-09-21T19:16:00.546Z,15.80
2022-09-21T19:18:39.247Z,15.60
2022-09-21T19:21:20.878Z,15.70
2022-09-21T19:24:03.972Z,15.60
2022-09-21T19:26:40.166Z,15.60
2022-09-21T19:29:35.447Z,15.50
2022-09-21T19:32:08.168Z,15.50
2022-09-21T19:34:39.012Z,15.50
2022-09-21T19:37:09.665Z,15.50
2022-09-21T19:39:43.417Z,15.40
2022-09-21T19:42:29.964Z,15.40
2022-09-21T19:45:17.959Z,15.40
2022-09-21T19:47:54.720Z,15.40
2022-09-21T19:50:29.560Z,15.30
2022-09-21T19:53:20.740Z,15.30
2022-09-21T19:56:06.240Z,15.30
2022-09-21T19:58:49.758Z,15.30
2022-09-21T20:01:23.709Z,15.10
2022-09-21T20:03:54.432Z,15.20
2022-09-21T20:06:29.970Z,15.20
2022-09-21T20:09:06.857Z,15.20
2022-09-21T20:11:50.700Z,15.10
2022-09-21T20:14:33.605Z,15.10
2022-09-21T20:17:10.704Z,15.10
2022-09-21T20:19:47.647Z,15.00
2022-09-21T20:22:20.234Z,15.10
2022-09-21T20:24:59.803Z,15.00
2022-09-21T20:27:37.514Z,15.00
2022-09-21T20:30:10.189Z,15.00
2022-09-21T20:32:42.475Z,14.90
2022-09-21T20:35:19.202Z,15.00
2022-09-21T20:37:51.756Z,14.90
2022-09-21T20:40:24.702Z,14.90
2022-09-21T20:42:58.424Z,14.90
2022-09-21T20:45:28.754Z,14.90
2022-09-21T20:48:13.390Z,14.90
2022-09-21T20:50:44.692Z,14.80
2022-09-21T20:53:15.587Z,14.80
2022-09-21T20:55:55.353Z,14.80
2022-09-21T20:58:28.390Z,14.80
2022-09-21T21:00:59.426Z,14.70
2022-09-21T21:03:29.740Z,14.70
2022-09-21T21:06:10.857Z,14.70
2022-09-21T21:08:41.126Z,14.70
2022-09-21T21:11:11.596Z,14.60
2022-09-21T21:13:44.611Z,14.60
2022-09-21T21:16:14.937Z,14.60
2022-09-21T21:18:45.369Z,14.60
2022-09-21T21:21:15.933Z,14.60
2022-09-21T21:23:58.721Z,14.50
2022-09-21T21:26:50.308Z,14.50
2022-09-21T21:29:21.934Z,14.40
2022-09-21T21:31:53.164Z,14.40
2022-09-21T21:34:23.525Z,14.40
2022-09-21T21:36:53.944Z,14.30
2022-09-21T21:39:24.445Z,14.30
2022-09-21T21:41:55.037Z,14.30
2022-09-21T21:44:27.974Z,14.30
2022-09-21T21:47:10.287Z,14.20
2022-09-21T21:49:48.916Z,14.20
2022-09-21T21:52:19.203Z,14.20
2022-09-21T21:54:50.215Z,14.10
2022-09-21T21:57:20.700Z,14.20
2022-09-21T21:59:53.548Z,14.20
2022-09-21T22:02:24.445Z,14.10
2022-09-21T22:04:54.782Z,14.10
2022-09-21T22:07:25.198Z,14.10
2022-09-21T22:09:55.789Z,14.10
2022-09-21T22:12:26.289Z,14.00
2022-09-21T22:14:59.139Z,14.00
2022-09-21T22:17:29.411Z,14.00
2022-09-21T22:19:59.818Z,14.00
2022-09-21T22:22:30.089Z,14.00
2022-09-21T22:25:00.327Z,13.90
2022-09-21T22:27:30.589Z,14.00
2022-09-21T22:30:03.432Z,13.90
2022-09-21T22:32:33.762Z,13.90
2022-09-21T22:35:03.989Z,13.90
2022-09-21T22:37:34.933Z,13.90
2022-09-21T22:40:05.512Z,13.80
2022-09-21T22:42:35.797Z,13.80
2022-09-21T22:45:09.475Z,13.80
2022-09-21T22:47:39.795Z,13.70
2022-09-21T22:50:11.262Z,13.80
2022-09-21T22:52:41.586Z,13.70
2022-09-21T22:55:12.864Z,13.80
2022-09-21T22:57:43.120Z,13.70
2022-09-21T23:00:18.229Z,13.70
2022-09-21T23:02:48.598Z,13.70
2022-09-21T23:05:19.055Z,13.70
2022-09-21T23:07:53.684Z,13.70
2022-09-21T23:10:25.657Z,13.60
2022-09-21T23:12:56.742Z,13.60
2022-09-21T23:15:29.647Z,13.60
2022-09-21T23:17:59.910Z,13.60
2022-09-21T23:20:31.101Z,13.60
2022-09-21T23:23:01.514Z,13.60
2022-09-21T23:25:32.278Z,13.50
2022-09-21T23:28:02.688Z,13.50
2022-09-21T23:30:35.708Z,13.50
2022-09-21T23:33:06.128Z,13.40
2022-09-21T23:35:36.441Z,13.40
2022-09-21T23:38:06.740Z,13.40
2022-09-21T23:40:37.080Z,13.40
2022-09-21T23:43:07.493Z,13.20
2022-09-21T23:45:40.391Z,13.30
2022-09-21T23:48:10.701Z,13.20
2022-09-21T23:50:41.283Z,13.20
2022-09-21T23:53:11.704Z,13.20
2022-09-21T23:55:42.659Z,13.20
2022-09-21T23:58:13.074Z,13.20
